sensor_id;sensor_type;location;lat;lon;timestamp;temperature;humidity
43143;DHT22;28750;59.842;17.584;2024-01-11T05:18:51;2.90;99.90
43143;DHT22;28750;59.842;17.584;2024-01-11T05:21:20;2.60;99.90
43143;DHT22;28750;59.842;17.584;2024-01-11T05:23:47;2.70;99.90
43143;DHT22;28750;59.842;17.584;2024-01-11T05:26:16;2.70;99.90
43143;DHT22;28750;59.842;17.584;2024-01-11T05:28:43;2.50;99.90
43143;DHT22;28750;59.842;17.584;2024-01-11T05:31:12;2.50;99.90
43143;DHT22;28750;59.842;17.584;2024-01-11T05:33:40;2.50;99.90
43143;DHT22;28750;59.842;17.584;2024-01-11T05:36:08;2.40;99.90
43143;DHT22;28750;59.842;17.584;2024-01-11T05:38:35;2.40;99.90
43143;DHT22;28750;59.842;17.584;2024-01-11T05:41:02;2.90;99.90
43143;DHT22;28750;59.842;17.584;2024-01-11T05:43:30;2.70;99.90
43143;DHT22;28750;59.842;17.584;2024-01-11T05:45:57;2.60;99.90
43143;DHT22;28750;59.842;17.584;2024-01-11T05:48:24;2.40;99.90
43143;DHT22;28750;59.842;17.584;2024-01-11T05:50:51;2.40;99.90
43143;DHT22;28750;59.842;17.584;2024-01-11T05:53:18;2.40;99.90
43143;DHT22;28750;59.842;17.584;2024-01-11T05:55:46;2.30;99.90
43143;DHT22;28750;59.842;17.584;2024-01-11T05:58:13;2.40;99.90
43143;DHT22;28750;59.842;17.584;2024-01-11T06:00:41;2.30;99.90
43143;DHT22;28750;59.842;17.584;2024-01-11T06:03:08;2.30;99.90
43143;DHT22;28750;59.842;17.584;2024-01-11T06:05:35;2.20;99.90
43143;DHT22;28750;59.842;17.584;2024-01-11T06:08:02;2.30;99.90
43143;DHT22;28750;59.842;17.584;2024-01-11T06:10:30;2.30;99.90
43143;DHT22;28750;59.842;17.584;2024-01-11T06:12:57;2.20;99.90
43143;DHT22;28750;59.842;17.584;2024-01-11T06:15:24;2.20;99.90
43143;DHT22;28750;59.842;17.584;2024-01-11T06:17:51;2.20;99.90
43143;DHT22;28750;59.842;17.584;2024-01-11T06:20:18;2.20;99.90
43143;DHT22;28750;59.842;17.584;2024-01-11T06:22:46;2.30;99.90
43143;DHT22;28750;59.842;17.584;2024-01-11T06:25:13;2.30;99.90
43143;DHT22;28750;59.842;17.584;2024-01-11T06:27:42;2.30;99.90
43143;DHT22;28750;59.842;17.584;2024-01-11T06:30:10;2.20;99.90
43143;DHT22;28750;59.842;17.584;2024-01-11T06:32:37;2.20;99.90
43143;DHT22;28750;59.842;17.584;2024-01-11T06:35:05;2.20;99.90
43143;DHT22;28750;59.842;17.584;2024-01-11T06:37:32;2.10;99.90
43143;DHT22;28750;59.842;17.584;2024-01-11T06:39:59;2.20;99.90
43143;DHT22;28750;59.842;17.584;2024-01-11T06:42:26;2.20;99.90
43143;DHT22;28750;59.842;17.584;2024-01-11T06:44:53;2.20;99.90
43143;DHT22;28750;59.842;17.584;2024-01-11T06:47:21;2.10;99.90
43143;DHT22;28750;59.842;17.584;2024-01-11T06:49:48;2.10;99.90
43143;DHT22;28750;59.842;17.584;2024-01-11T06:52:15;2.10;99.90
43143;DHT22;28750;59.842;17.584;2024-01-11T06:54:42;2.10;99.90
43143;DHT22;28750;59.842;17.584;2024-01-11T06:57:09;2.10;99.90
43143;DHT22;28750;59.842;17.584;2024-01-11T06:59:36;2.00;99.90
43143;DHT22;28750;59.842;17.584;2024-01-11T07:02:03;2.00;99.90
43143;DHT22;28750;59.842;17.584;2024-01-11T07:04:30;2.00;99.90
43143;DHT22;28750;59.842;17.584;2024-01-11T07:06:57;2.00;99.90
43143;DHT22;28750;59.842;17.584;2024-01-11T07:09:24;2.00;99.90
43143;DHT22;28750;59.842;17.584;2024-01-11T07:11:52;2.00;99.90
43143;DHT22;28750;59.842;17.584;2024-01-11T07:14:19;2.00;99.90
43143;DHT22;28750;59.842;17.584;2024-01-11T07:16:46;2.00;99.90
43143;DHT22;28750;59.842;17.584;2024-01-11T07:19:13;2.00;99.90
43143;DHT22;28750;59.842;17.584;2024-01-11T07:21:40;2.00;99.90
43143;DHT22;28750;59.842;17.584;2024-01-11T07:24:07;2.10;99.90
43143;DHT22;28750;59.842;17.584;2024-01-11T07:26:34;2.00;99.90
43143;DHT22;28750;59.842;17.584;2024-01-11T07:29:01;2.00;99.90
43143;DHT22;28750;59.842;17.584;2024-01-11T07:31:28;1.90;99.90
43143;DHT22;28750;59.842;17.584;2024-01-11T07:33:55;2.00;99.90
43143;DHT22;28750;59.842;17.584;2024-01-11T07:36:22;2.00;99.90
43143;DHT22;28750;59.842;17.584;2024-01-11T07:38:50;1.90;99.90
43143;DHT22;28750;59.842;17.584;2024-01-11T07:41:17;1.90;99.90
43143;DHT22;28750;59.842;17.584;2024-01-11T07:43:44;1.90;99.90
43143;DHT22;28750;59.842;17.584;2024-01-11T07:46:11;1.90;99.90
43143;DHT22;28750;59.842;17.584;2024-01-11T07:48:38;2.00;99.90
43143;DHT22;28750;59.842;17.584;2024-01-11T07:51:05;2.20;99.90
43143;DHT22;28750;59.842;17.584;2024-01-11T07:53:33;2.00;99.90
43143;DHT22;28750;59.842;17.584;2024-01-11T07:56:00;2.00;99.90
43143;DHT22;28750;59.842;17.584;2024-01-11T07:58:27;2.00;99.90
43143;DHT22;28750;59.842;17.584;2024-01-11T08:00:54;2.10;99.90
43143;DHT22;28750;59.842;17.584;2024-01-11T08:03:21;2.00;99.90
43143;DHT22;28750;59.842;17.584;2024-01-11T08:05:48;2.00;99.90
43143;DHT22;28750;59.842;17.584;2024-01-11T08:08:16;2.00;99.90
43143;DHT22;28750;59.842;17.584;2024-01-11T08:10:43;2.40;99.90
43143;DHT22;28750;59.842;17.584;2024-01-11T08:13:10;2.20;99.90
43143;DHT22;28750;59.842;17.584;2024-01-11T08:15:38;2.00;99.90
43143;DHT22;28750;59.842;17.584;2024-01-11T08:18:05;2.00;99.90
43143;DHT22;28750;59.842;17.584;2024-01-11T08:20:32;2.00;99.90
43143;DHT22;28750;59.842;17.584;2024-01-11T08:22:59;1.90;99.90
43143;DHT22;28750;59.842;17.584;2024-01-11T08:25:26;1.90;99.90
43143;DHT22;28750;59.842;17.584;2024-01-11T08:27:54;1.90;99.90
43143;DHT22;28750;59.842;17.584;2024-01-11T08:30:21;2.00;99.90
43143;DHT22;28750;59.842;17.584;2024-01-11T08:32:48;2.00;99.90
43143;DHT22;28750;59.842;17.584;2024-01-11T08:35:15;1.90;99.90
43143;DHT22;28750;59.842;17.584;2024-01-11T08:37:42;1.90;99.90
43143;DHT22;28750;59.842;17.584;2024-01-11T08:40:10;2.00;99.90
43143;DHT22;28750;59.842;17.584;2024-01-11T08:42:37;2.00;99.90
43143;DHT22;28750;59.842;17.584;2024-01-11T08:45:06;1.90;99.90
43143;DHT22;28750;59.842;17.584;2024-01-11T08:47:34;1.90;99.90
43143;DHT22;28750;59.842;17.584;2024-01-11T08:50:01;1.90;99.90
43143;DHT22;28750;59.842;17.584;2024-01-11T08:52:32;1.90;99.90
43143;DHT22;28750;59.842;17.584;2024-01-11T08:54:59;1.90;99.90
43143;DHT22;28750;59.842;17.584;2024-01-11T08:57:27;1.90;99.90
43143;DHT22;28750;59.842;17.584;2024-01-11T08:59:54;1.90;99.90
43143;DHT22;28750;59.842;17.584;2024-01-11T09:02:21;1.90;99.90
43143;DHT22;28750;59.842;17.584;2024-01-11T09:04:48;1.80;99.90
43143;DHT22;28750;59.842;17.584;2024-01-11T09:07:16;1.80;99.90
43143;DHT22;28750;59.842;17.584;2024-01-11T09:09:43;1.80;99.90
43143;DHT22;28750;59.842;17.584;2024-01-11T09:12:11;1.80;99.90
43143;DHT22;28750;59.842;17.584;2024-01-11T09:14:38;1.80;99.90
43143;DHT22;28750;59.842;17.584;2024-01-11T09:17:06;1.80;99.90
43143;DHT22;28750;59.842;17.584;2024-01-11T09:19:34;1.80;99.90
43143;DHT22;28750;59.842;17.584;2024-01-11T09:22:03;1.80;99.90
43143;DHT22;28750;59.842;17.584;2024-01-11T09:24:30;1.90;99.90
43143;DHT22;28750;59.842;17.584;2024-01-11T09:26:57;1.80;99.90
43143;DHT22;28750;59.842;17.584;2024-01-11T09:29:24;1.80;99.90
43143;DHT22;28750;59.842;17.584;2024-01-11T09:31:51;1.80;99.90
43143;DHT22;28750;59.842;17.584;2024-01-11T09:34:18;1.80;99.90
43143;DHT22;28750;59.842;17.584;2024-01-11T09:36:45;1.80;99.90
43143;DHT22;28750;59.842;17.584;2024-01-11T09:39:12;1.80;99.90
43143;DHT22;28750;59.842;17.584;2024-01-11T09:41:43;1.80;99.90
43143;DHT22;28750;59.842;17.584;2024-01-11T09:44:13;1.70;99.90
43143;DHT22;28750;59.842;17.584;2024-01-11T09:46:40;1.70;99.90
43143;DHT22;28750;59.842;17.584;2024-01-11T09:49:08;1.70;99.90
43143;DHT22;28750;59.842;17.584;2024-01-11T09:51:38;1.70;99.90
43143;DHT22;28750;59.842;17.584;2024-01-11T09:54:06;1.70;99.90
43143;DHT22;28750;59.842;17.584;2024-01-11T09:56:35;1.70;99.90
43143;DHT22;28750;59.842;17.584;2024-01-11T09:59:02;1.60;99.90
43143;DHT22;28750;59.842;17.584;2024-01-11T10:01:31;1.60;99.90
43143;DHT22;28750;59.842;17.584;2024-01-11T10:03:59;1.60;99.90
43143;DHT22;28750;59.842;17.584;2024-01-11T10:06:27;1.50;99.90
43143;DHT22;28750;59.842;17.584;2024-01-11T10:08:54;1.50;99.90
43143;DHT22;28750;59.842;17.584;2024-01-11T10:11:21;1.40;99.90
43143;DHT22;28750;59.842;17.584;2024-01-11T10:13:48;1.40;99.90
43143;DHT22;28750;59.842;17.584;2024-01-11T10:16:22;1.50;99.90
43143;DHT22;28750;59.842;17.584;2024-01-11T10:18:53;1.40;99.90
43143;DHT22;28750;59.842;17.584;2024-01-11T10:21:20;1.40;99.90
43143;DHT22;28750;59.842;17.584;2024-01-11T10:23:47;1.40;99.90
43143;DHT22;28750;59.842;17.584;2024-01-11T10:26:16;1.40;99.90
43143;DHT22;28750;59.842;17.584;2024-01-11T10:28:46;1.40;99.90
43143;DHT22;28750;59.842;17.584;2024-01-11T10:31:13;1.40;99.90
43143;DHT22;28750;59.842;17.584;2024-01-11T10:33:41;1.30;99.90
43143;DHT22;28750;59.842;17.584;2024-01-11T10:36:09;1.40;99.90
43143;DHT22;28750;59.842;17.584;2024-01-11T10:38:39;1.40;99.90
43143;DHT22;28750;59.842;17.584;2024-01-11T10:41:07;1.40;99.90
43143;DHT22;28750;59.842;17.584;2024-01-11T10:43:38;1.50;99.90
43143;DHT22;28750;59.842;17.584;2024-01-11T10:46:05;1.50;99.90
43143;DHT22;28750;59.842;17.584;2024-01-11T10:48:44;1.50;99.90
43143;DHT22;28750;59.842;17.584;2024-01-11T10:51:16;1.40;99.90
43143;DHT22;28750;59.842;17.584;2024-01-11T10:53:47;1.40;99.90
43143;DHT22;28750;59.842;17.584;2024-01-11T10:56:16;1.30;99.90
43143;DHT22;28750;59.842;17.584;2024-01-11T10:58:44;1.30;99.90
43143;DHT22;28750;59.842;17.584;2024-01-11T11:01:12;1.20;99.90
43143;DHT22;28750;59.842;17.584;2024-01-11T11:03:40;1.20;99.90
43143;DHT22;28750;59.842;17.584;2024-01-11T11:06:09;1.20;99.90
43143;DHT22;28750;59.842;17.584;2024-01-11T11:08:38;1.20;99.90
43143;DHT22;28750;59.842;17.584;2024-01-11T11:11:06;1.20;99.90
43143;DHT22;28750;59.842;17.584;2024-01-11T11:13:34;1.30;99.90
43143;DHT22;28750;59.842;17.584;2024-01-11T11:16:02;1.30;99.90
43143;DHT22;28750;59.842;17.584;2024-01-11T11:18:31;1.20;99.90
43143;DHT22;28750;59.842;17.584;2024-01-11T11:21:01;1.20;99.90
43143;DHT22;28750;59.842;17.584;2024-01-11T11:23:28;1.20;99.90
43143;DHT22;28750;59.842;17.584;2024-01-11T11:25:55;1.20;99.90
43143;DHT22;28750;59.842;17.584;2024-01-11T11:28:23;1.20;99.90
43143;DHT22;28750;59.842;17.584;2024-01-11T11:30:52;1.00;99.90
43143;DHT22;28750;59.842;17.584;2024-01-11T11:33:23;1.00;99.90
43143;DHT22;28750;59.842;17.584;2024-01-11T11:35:56;0.90;99.90
43143;DHT22;28750;59.842;17.584;2024-01-11T11:38:28;0.80;99.90
43143;DHT22;28750;59.842;17.584;2024-01-11T11:40:57;0.90;99.90
43143;DHT22;28750;59.842;17.584;2024-01-11T11:43:27;0.80;99.90
43143;DHT22;28750;59.842;17.584;2024-01-11T11:45:54;0.70;99.90
43143;DHT22;28750;59.842;17.584;2024-01-11T11:51:06;0.80;99.90
43143;DHT22;28750;59.842;17.584;2024-01-11T11:53:35;0.80;99.90
43143;DHT22;28750;59.842;17.584;2024-01-11T11:56:03;0.70;99.90
43143;DHT22;28750;59.842;17.584;2024-01-11T11:58:30;0.70;99.90
43143;DHT22;28750;59.842;17.584;2024-01-11T12:00:59;0.70;99.90
43143;DHT22;28750;59.842;17.584;2024-01-11T12:03:31;0.70;99.90
43143;DHT22;28750;59.842;17.584;2024-01-11T12:06:00;0.60;99.90
43143;DHT22;28750;59.842;17.584;2024-01-11T12:08:27;0.50;99.90
43143;DHT22;28750;59.842;17.584;2024-01-11T12:10:54;0.60;99.90
43143;DHT22;28750;59.842;17.584;2024-01-11T12:13:22;0.40;99.90
43143;DHT22;28750;59.842;17.584;2024-01-11T12:15:49;0.50;99.90
43143;DHT22;28750;59.842;17.584;2024-01-11T12:18:16;0.50;99.90
43143;DHT22;28750;59.842;17.584;2024-01-11T12:20:44;0.50;99.90
43143;DHT22;28750;59.842;17.584;2024-01-11T12:23:11;0.60;99.90
43143;DHT22;28750;59.842;17.584;2024-01-11T12:25:40;0.70;99.90
43143;DHT22;28750;59.842;17.584;2024-01-11T12:28:07;0.70;99.90
43143;DHT22;28750;59.842;17.584;2024-01-11T12:30:35;0.70;99.90
43143;DHT22;28750;59.842;17.584;2024-01-11T12:33:02;0.70;99.90
43143;DHT22;28750;59.842;17.584;2024-01-11T12:35:31;0.80;99.90
43143;DHT22;28750;59.842;17.584;2024-01-11T12:38:03;0.80;99.90
43143;DHT22;28750;59.842;17.584;2024-01-11T12:40:35;0.80;99.90
43143;DHT22;28750;59.842;17.584;2024-01-11T12:43:04;0.80;99.90
43143;DHT22;28750;59.842;17.584;2024-01-11T12:45:38;0.80;99.90
43143;DHT22;28750;59.842;17.584;2024-01-11T12:48:09;0.90;99.90
43143;DHT22;28750;59.842;17.584;2024-01-11T12:50:40;0.80;99.90
43143;DHT22;28750;59.842;17.584;2024-01-11T12:53:11;0.90;99.90
43143;DHT22;28750;59.842;17.584;2024-01-11T12:56:01;0.90;99.90
43143;DHT22;28750;59.842;17.584;2024-01-11T12:58:29;0.90;99.90
43143;DHT22;28750;59.842;17.584;2024-01-11T13:00:56;0.80;99.90
43143;DHT22;28750;59.842;17.584;2024-01-11T13:03:25;0.80;99.90
43143;DHT22;28750;59.842;17.584;2024-01-11T13:05:52;0.90;99.90
43143;DHT22;28750;59.842;17.584;2024-01-11T13:08:20;0.90;99.90
43143;DHT22;28750;59.842;17.584;2024-01-11T13:10:47;0.80;99.90
43143;DHT22;28750;59.842;17.584;2024-01-11T13:13:14;0.80;99.90
43143;DHT22;28750;59.842;17.584;2024-01-11T13:15:41;0.70;99.90
43143;DHT22;28750;59.842;17.584;2024-01-11T13:18:08;0.80;99.90
43143;DHT22;28750;59.842;17.584;2024-01-11T13:20:35;0.70;99.90
43143;DHT22;28750;59.842;17.584;2024-01-11T13:25:41;0.70;99.90
43143;DHT22;28750;59.842;17.584;2024-01-11T13:28:09;0.70;99.90
43143;DHT22;28750;59.842;17.584;2024-01-11T13:30:38;0.70;99.90
43143;DHT22;28750;59.842;17.584;2024-01-11T13:33:08;0.60;99.90
43143;DHT22;28750;59.842;17.584;2024-01-11T13:35:36;0.70;99.90
43143;DHT22;28750;59.842;17.584;2024-01-11T13:38:04;0.70;99.90
43143;DHT22;28750;59.842;17.584;2024-01-11T13:40:32;0.70;99.90
43143;DHT22;28750;59.842;17.584;2024-01-11T13:43:00;0.70;99.90
43143;DHT22;28750;59.842;17.584;2024-01-11T13:45:27;0.70;99.90
43143;DHT22;28750;59.842;17.584;2024-01-11T13:47:55;0.80;99.90
43143;DHT22;28750;59.842;17.584;2024-01-11T13:50:23;0.70;99.90
43143;DHT22;28750;59.842;17.584;2024-01-11T13:52:50;0.70;99.90
43143;DHT22;28750;59.842;17.584;2024-01-11T13:55:17;0.70;99.90
43143;DHT22;28750;59.842;17.584;2024-01-11T13:57:47;0.60;99.90
43143;DHT22;28750;59.842;17.584;2024-01-11T14:00:14;0.60;99.90
43143;DHT22;28750;59.842;17.584;2024-01-11T14:02:43;0.60;99.90
43143;DHT22;28750;59.842;17.584;2024-01-11T14:05:11;0.60;99.90
43143;DHT22;28750;59.842;17.584;2024-01-11T14:07:41;0.50;99.90
43143;DHT22;28750;59.842;17.584;2024-01-11T14:10:11;0.50;99.90
43143;DHT22;28750;59.842;17.584;2024-01-11T14:12:38;0.50;99.90
43143;DHT22;28750;59.842;17.584;2024-01-11T14:15:07;0.60;99.90
43143;DHT22;28750;59.842;17.584;2024-01-11T14:17:37;0.60;99.90
43143;DHT22;28750;59.842;17.584;2024-01-11T14:20:05;0.60;99.90
43143;DHT22;28750;59.842;17.584;2024-01-11T14:22:37;0.60;99.90
43143;DHT22;28750;59.842;17.584;2024-01-11T14:25:04;0.50;99.90
43143;DHT22;28750;59.842;17.584;2024-01-11T14:27:31;0.60;99.90
43143;DHT22;28750;59.842;17.584;2024-01-11T14:29:58;0.60;99.90
43143;DHT22;28750;59.842;17.584;2024-01-11T14:32:26;0.60;99.90
43143;DHT22;28750;59.842;17.584;2024-01-11T14:34:53;0.60;99.90
43143;DHT22;28750;59.842;17.584;2024-01-11T14:37:21;0.40;99.90
43143;DHT22;28750;59.842;17.584;2024-01-11T14:39:48;0.30;99.90
43143;DHT22;28750;59.842;17.584;2024-01-11T14:42:15;0.30;99.90
43143;DHT22;28750;59.842;17.584;2024-01-11T14:44:42;0.40;99.90
43143;DHT22;28750;59.842;17.584;2024-01-11T14:47:09;0.50;99.90
43143;DHT22;28750;59.842;17.584;2024-01-11T14:49:36;0.50;99.90
43143;DHT22;28750;59.842;17.584;2024-01-11T14:52:03;0.40;99.90
43143;DHT22;28750;59.842;17.584;2024-01-11T14:54:30;0.40;99.90
43143;DHT22;28750;59.842;17.584;2024-01-11T14:56:57;0.40;99.90
43143;DHT22;28750;59.842;17.584;2024-01-11T14:59:24;0.50;99.90
43143;DHT22;28750;59.842;17.584;2024-01-11T15:01:51;0.70;99.90
43143;DHT22;28750;59.842;17.584;2024-01-11T15:04:18;0.50;99.90
43143;DHT22;28750;59.842;17.584;2024-01-11T15:06:47;0.50;99.90
43143;DHT22;28750;59.842;17.584;2024-01-11T15:09:15;0.50;99.90
43143;DHT22;28750;59.842;17.584;2024-01-11T15:11:42;0.50;99.90
43143;DHT22;28750;59.842;17.584;2024-01-11T15:14:09;0.40;99.90
43143;DHT22;28750;59.842;17.584;2024-01-11T15:16:37;0.60;99.90
43143;DHT22;28750;59.842;17.584;2024-01-11T15:19:04;0.50;99.90
43143;DHT22;28750;59.842;17.584;2024-01-11T15:21:32;0.50;99.90
43143;DHT22;28750;59.842;17.584;2024-01-11T15:23:59;0.50;99.90
43143;DHT22;28750;59.842;17.584;2024-01-11T15:26:26;0.50;99.90
43143;DHT22;28750;59.842;17.584;2024-01-11T15:28:53;0.30;99.90
43143;DHT22;28750;59.842;17.584;2024-01-11T15:31:20;0.50;99.90
43143;DHT22;28750;59.842;17.584;2024-01-11T15:33:48;0.50;99.90
43143;DHT22;28750;59.842;17.584;2024-01-11T15:36:15;0.40;99.90
43143;DHT22;28750;59.842;17.584;2024-01-11T15:38:42;0.30;99.90
43143;DHT22;28750;59.842;17.584;2024-01-11T15:41:09;0.20;99.90
43143;DHT22;28750;59.842;17.584;2024-01-11T15:43:36;0.20;99.90
43143;DHT22;28750;59.842;17.584;2024-01-11T15:46:03;0.20;99.90
43143;DHT22;28750;59.842;17.584;2024-01-11T15:48:30;0.20;99.90
43143;DHT22;28750;59.842;17.584;2024-01-11T15:50:57;0.20;99.90
43143;DHT22;28750;59.842;17.584;2024-01-11T15:53:24;0.10;99.90
43143;DHT22;28750;59.842;17.584;2024-01-11T15:55:51;0.10;99.90
43143;DHT22;28750;59.842;17.584;2024-01-11T15:58:18;0.20;99.90
43143;DHT22;28750;59.842;17.584;2024-01-11T16:00:46;0.10;99.90
43143;DHT22;28750;59.842;17.584;2024-01-11T16:03:13;0.10;99.90
43143;DHT22;28750;59.842;17.584;2024-01-11T16:05:40;0.10;99.90
43143;DHT22;28750;59.842;17.584;2024-01-11T16:08:08;0.20;99.90
43143;DHT22;28750;59.842;17.584;2024-01-11T16:10:35;0.20;99.90
43143;DHT22;28750;59.842;17.584;2024-01-11T16:13:03;0.20;99.90
43143;DHT22;28750;59.842;17.584;2024-01-11T16:15:30;0.20;99.90
43143;DHT22;28750;59.842;17.584;2024-01-11T16:17:57;0.30;99.90
43143;DHT22;28750;59.842;17.584;2024-01-11T16:20:24;0.30;99.90
43143;DHT22;28750;59.842;17.584;2024-01-11T16:22:51;0.20;99.90
43143;DHT22;28750;59.842;17.584;2024-01-11T16:25:18;0.30;99.90
43143;DHT22;28750;59.842;17.584;2024-01-11T16:27:45;0.20;99.90
43143;DHT22;28750;59.842;17.584;2024-01-11T16:30:12;0.20;99.90
43143;DHT22;28750;59.842;17.584;2024-01-11T16:32:39;0.20;99.90
43143;DHT22;28750;59.842;17.584;2024-01-11T16:35:07;0.20;99.90
43143;DHT22;28750;59.842;17.584;2024-01-11T16:37:34;0.10;99.90
43143;DHT22;28750;59.842;17.584;2024-01-11T16:40:01;0.10;99.90
43143;DHT22;28750;59.842;17.584;2024-01-11T16:42:28;0.20;99.90
43143;DHT22;28750;59.842;17.584;2024-01-11T16:44:56;0.10;99.90
43143;DHT22;28750;59.842;17.584;2024-01-11T16:47:23;0.10;99.90
43143;DHT22;28750;59.842;17.584;2024-01-11T16:49:50;0.10;99.90
43143;DHT22;28750;59.842;17.584;2024-01-11T16:52:18;0.00;99.90
43143;DHT22;28750;59.842;17.584;2024-01-11T16:54:46;0.10;99.90
43143;DHT22;28750;59.842;17.584;2024-01-11T16:57:13;0.20;99.90
43143;DHT22;28750;59.842;17.584;2024-01-11T16:59:40;0.20;99.90
43143;DHT22;28750;59.842;17.584;2024-01-11T17:02:07;0.20;99.90
43143;DHT22;28750;59.842;17.584;2024-01-11T17:04:34;0.20;99.90
43143;DHT22;28750;59.842;17.584;2024-01-11T17:07:01;0.10;99.90
43143;DHT22;28750;59.842;17.584;2024-01-11T17:09:28;0.00;99.90
43143;DHT22;28750;59.842;17.584;2024-01-11T17:11:55;0.00;99.90
43143;DHT22;28750;59.842;17.584;2024-01-11T17:14:22;0.00;99.90
43143;DHT22;28750;59.842;17.584;2024-01-11T17:16:51;0.00;99.90
43143;DHT22;28750;59.842;17.584;2024-01-11T17:19:18;0.00;99.90
43143;DHT22;28750;59.842;17.584;2024-01-11T17:21:45;-0.10;99.90
43143;DHT22;28750;59.842;17.584;2024-01-11T17:24:13;-0.10;99.90
43143;DHT22;28750;59.842;17.584;2024-01-11T17:26:39;0.00;99.90
43143;DHT22;28750;59.842;17.584;2024-01-11T17:29:07;0.00;99.90
43143;DHT22;28750;59.842;17.584;2024-01-11T17:31:34;0.10;99.90
43143;DHT22;28750;59.842;17.584;2024-01-11T17:34:07;0.10;99.90
43143;DHT22;28750;59.842;17.584;2024-01-11T17:36:34;0.20;99.90
43143;DHT22;28750;59.842;17.584;2024-01-11T17:39:01;0.20;99.90
43143;DHT22;28750;59.842;17.584;2024-01-11T17:41:29;-0.10;99.90
43143;DHT22;28750;59.842;17.584;2024-01-11T17:43:56;-0.20;99.90
43143;DHT22;28750;59.842;17.584;2024-01-11T17:46:23;-0.30;99.90
43143;DHT22;28750;59.842;17.584;2024-01-11T17:48:50;-0.30;99.90
43143;DHT22;28750;59.842;17.584;2024-01-11T17:51:17;-0.40;99.90
43143;DHT22;28750;59.842;17.584;2024-01-11T17:53:44;-0.30;99.90
43143;DHT22;28750;59.842;17.584;2024-01-11T17:56:12;-0.30;99.90
43143;DHT22;28750;59.842;17.584;2024-01-11T17:58:39;-0.40;99.90
43143;DHT22;28750;59.842;17.584;2024-01-11T18:01:06;-0.20;99.90
43143;DHT22;28750;59.842;17.584;2024-01-11T18:03:33;-0.10;99.90
43143;DHT22;28750;59.842;17.584;2024-01-11T18:06:00;0.00;99.90
43143;DHT22;28750;59.842;17.584;2024-01-11T18:08:28;-0.10;99.90
43143;DHT22;28750;59.842;17.584;2024-01-11T18:10:55;-0.10;99.90
43143;DHT22;28750;59.842;17.584;2024-01-11T18:13:22;-0.10;99.90
43143;DHT22;28750;59.842;17.584;2024-01-11T18:15:50;0.10;99.90
43143;DHT22;28750;59.842;17.584;2024-01-11T18:18:17;0.10;99.90
43143;DHT22;28750;59.842;17.584;2024-01-11T18:20:44;0.00;99.90
43143;DHT22;28750;59.842;17.584;2024-01-11T18:23:13;0.10;99.90
43143;DHT22;28750;59.842;17.584;2024-01-11T18:25:40;-0.10;99.90
43143;DHT22;28750;59.842;17.584;2024-01-11T18:28:08;-0.20;99.90
43143;DHT22;28750;59.842;17.584;2024-01-11T18:30:35;-0.30;99.90
43143;DHT22;28750;59.842;17.584;2024-01-11T18:33:02;-0.20;99.90
43143;DHT22;28750;59.842;17.584;2024-01-11T18:35:31;-0.30;99.90
43143;DHT22;28750;59.842;17.584;2024-01-11T18:37:58;-0.40;99.90
43143;DHT22;28750;59.842;17.584;2024-01-11T18:40:26;-0.50;99.90
43143;DHT22;28750;59.842;17.584;2024-01-11T18:42:53;-0.50;99.90
43143;DHT22;28750;59.842;17.584;2024-01-11T18:45:21;-0.60;99.90
43143;DHT22;28750;59.842;17.584;2024-01-11T18:47:49;-0.70;99.90
43143;DHT22;28750;59.842;17.584;2024-01-11T18:50:17;-0.70;99.90
43143;DHT22;28750;59.842;17.584;2024-01-11T18:52:45;-0.70;99.90
43143;DHT22;28750;59.842;17.584;2024-01-11T18:55:13;-0.60;99.90
43143;DHT22;28750;59.842;17.584;2024-01-11T18:57:41;-0.40;99.90
43143;DHT22;28750;59.842;17.584;2024-01-11T19:00:08;-0.40;99.90
43143;DHT22;28750;59.842;17.584;2024-01-11T19:02:36;-0.40;99.90
43143;DHT22;28750;59.842;17.584;2024-01-11T19:05:04;-0.70;99.90
43143;DHT22;28750;59.842;17.584;2024-01-11T19:07:31;-0.80;99.90
43143;DHT22;28750;59.842;17.584;2024-01-11T19:09:58;-0.70;99.90
43143;DHT22;28750;59.842;17.584;2024-01-11T19:12:25;-0.80;99.90
43143;DHT22;28750;59.842;17.584;2024-01-11T19:14:52;-0.80;99.90
43143;DHT22;28750;59.842;17.584;2024-01-11T19:17:19;-1.00;99.90
43143;DHT22;28750;59.842;17.584;2024-01-11T19:19:46;-0.90;99.90
43143;DHT22;28750;59.842;17.584;2024-01-11T19:22:13;-1.10;99.90
43143;DHT22;28750;59.842;17.584;2024-01-11T19:24:40;-0.90;99.90
43143;DHT22;28750;59.842;17.584;2024-01-11T19:27:07;-0.90;99.90
43143;DHT22;28750;59.842;17.584;2024-01-11T19:29:34;-0.80;99.90
43143;DHT22;28750;59.842;17.584;2024-01-11T19:32:02;-1.00;99.90
43143;DHT22;28750;59.842;17.584;2024-01-11T19:34:29;-1.00;99.90
43143;DHT22;28750;59.842;17.584;2024-01-11T19:36:56;-1.10;99.90
43143;DHT22;28750;59.842;17.584;2024-01-11T19:39:23;-1.20;99.90
43143;DHT22;28750;59.842;17.584;2024-01-11T19:41:50;-1.10;99.90
43143;DHT22;28750;59.842;17.584;2024-01-11T19:44:17;-1.10;99.90
43143;DHT22;28750;59.842;17.584;2024-01-11T19:46:44;-1.20;99.90
43143;DHT22;28750;59.842;17.584;2024-01-11T19:49:11;-1.10;99.90
43143;DHT22;28750;59.842;17.584;2024-01-11T19:51:39;-1.20;99.90
43143;DHT22;28750;59.842;17.584;2024-01-11T19:54:06;-1.10;99.90
43143;DHT22;28750;59.842;17.584;2024-01-11T19:56:33;-1.00;99.90
43143;DHT22;28750;59.842;17.584;2024-01-11T19:59:01;-1.10;99.90
43143;DHT22;28750;59.842;17.584;2024-01-11T20:01:28;-1.20;99.90
43143;DHT22;28750;59.842;17.584;2024-01-11T20:03:55;-1.20;99.90
43143;DHT22;28750;59.842;17.584;2024-01-11T20:06:24;-1.30;99.90
43143;DHT22;28750;59.842;17.584;2024-01-11T20:08:51;-1.30;99.90
43143;DHT22;28750;59.842;17.584;2024-01-11T20:11:18;-1.50;99.90
43143;DHT22;28750;59.842;17.584;2024-01-11T20:13:45;-1.50;99.90
43143;DHT22;28750;59.842;17.584;2024-01-11T20:16:12;-1.50;99.90
43143;DHT22;28750;59.842;17.584;2024-01-11T20:18:39;-1.50;99.90
43143;DHT22;28750;59.842;17.584;2024-01-11T20:21:07;-1.40;99.90
43143;DHT22;28750;59.842;17.584;2024-01-11T20:23:39;-1.40;99.90
43143;DHT22;28750;59.842;17.584;2024-01-11T20:26:12;-1.20;99.90
43143;DHT22;28750;59.842;17.584;2024-01-11T20:28:40;-1.20;99.90
43143;DHT22;28750;59.842;17.584;2024-01-11T20:31:08;-1.20;99.90
43143;DHT22;28750;59.842;17.584;2024-01-11T20:33:35;-1.30;99.90
43143;DHT22;28750;59.842;17.584;2024-01-11T20:36:03;-1.20;99.90
43143;DHT22;28750;59.842;17.584;2024-01-11T20:38:31;-1.40;99.90
43143;DHT22;28750;59.842;17.584;2024-01-11T20:40:59;-1.40;99.90
43143;DHT22;28750;59.842;17.584;2024-01-11T20:43:28;-1.20;99.90
43143;DHT22;28750;59.842;17.584;2024-01-11T20:45:55;-1.10;99.90
43143;DHT22;28750;59.842;17.584;2024-01-11T20:48:22;-1.00;99.90
43143;DHT22;28750;59.842;17.584;2024-01-11T20:50:51;-0.90;99.90
43143;DHT22;28750;59.842;17.584;2024-01-11T20:53:18;-0.80;99.90